Avalon, Pennsylvania
Current Conditions -  °F | °C
As of 5:51 PM on Tuesday 27 Jan 2015 (Local Time) from KPIT Reporting Station
Light Snow Light Snow  
Wind Chill:   Ceiling: 2600
Heat Index: 20°   Visibility: 5mi
Dew Point: 14°   Wind: 12mph
Humidity: 78%   Direction: 320°NW
Pressure: 30.03"   Gusts: NA
Location:  40.5069°N, 80.0715°W
Report Text: KPIT 272251Z 32010KT 5SM -SN SCT020 BKN026 OVC043 M07/M10 A3003 RMK AO2 SLP197 P0000 T10671100
Loading
Personal Weather Stations






























Interactive Weather Map New forecast layout! Learn more

10-Day Weather Forecast

Advertisements
Track Severe Weather on mobile